sensor_id;sensor_type;location;lat;lon;timestamp;pressure;altitude;pressure_sealevel;temperature;humidity
69784;BME280;57054;51.978;4.498;2023-05-25T00:01:21;102664.41;;;11.49;83.96
69784;BME280;57054;51.978;4.498;2023-05-25T00:03:48;102657.50;;;11.45;84.34
69784;BME280;57054;51.978;4.498;2023-05-25T00:06:16;102662.69;;;11.50;84.25
69784;BME280;57054;51.978;4.498;2023-05-25T00:08:42;102660.06;;;11.50;84.54
69784;BME280;57054;51.978;4.498;2023-05-25T00:11:08;102664.34;;;11.54;84.24
69784;BME280;57054;51.978;4.498;2023-05-25T00:13:33;102669.63;;;11.52;84.50
69784;BME280;57054;51.978;4.498;2023-05-25T00:15:59;102662.66;;;11.51;84.54
69784;BME280;57054;51.978;4.498;2023-05-25T00:18:24;102666.97;;;11.54;84.61
69784;BME280;57054;51.978;4.498;2023-05-25T00:20:51;102666.13;;;11.52;84.74
69784;BME280;57054;51.978;4.498;2023-05-25T00:23:19;102661.72;;;11.54;84.59
69784;BME280;57054;51.978;4.498;2023-05-25T00:25:45;102671.38;;;11.52;84.81
69784;BME280;57054;51.978;4.498;2023-05-25T00:28:11;102659.97;;;11.53;85.20
69784;BME280;57054;51.978;4.498;2023-05-25T00:30:36;102662.59;;;11.53;84.80
69784;BME280;57054;51.978;4.498;2023-05-25T00:33:02;102659.97;;;11.53;85.07
69784;BME280;57054;51.978;4.498;2023-05-25T00:35:27;102656.50;;;11.52;84.96
69784;BME280;57054;51.978;4.498;2023-05-25T00:37:53;102664.41;;;11.49;85.92
69784;BME280;57054;51.978;4.498;2023-05-25T00:40:19;102665.31;;;11.50;86.17
69784;BME280;57054;51.978;4.498;2023-05-25T00:42:44;102673.22;;;11.47;86.33
69784;BME280;57054;51.978;4.498;2023-05-25T00:45:10;102670.59;;;11.45;86.85
69784;BME280;57054;51.978;4.498;2023-05-25T00:47:36;102669.78;;;11.42;87.51
69784;BME280;57054;51.978;4.498;2023-05-25T00:50:02;102668.94;;;11.41;88.04
69784;BME280;57054;51.978;4.498;2023-05-25T00:52:28;102662.69;;;11.48;87.42
69784;BME280;57054;51.978;4.498;2023-05-25T00:55:12;102671.41;;;11.50;87.45
69784;BME280;57054;51.978;4.498;2023-05-25T00:57:40;102665.28;;;11.51;88.16
69784;BME280;57054;51.978;4.498;2023-05-25T01:00:10;102667.03;;;11.51;88.00
69784;BME280;57054;51.978;4.498;2023-05-25T01:05:05;102672.25;;;11.52;88.45
69784;BME280;57054;51.978;4.498;2023-05-25T01:07:33;102678.31;;;11.56;88.40
69784;BME280;57054;51.978;4.498;2023-05-25T01:10:04;102675.66;;;11.58;88.53
69784;BME280;57054;51.978;4.498;2023-05-25T01:12:35;102685.25;;;11.60;88.03
69784;BME280;57054;51.978;4.498;2023-05-25T01:15:02;102680.00;;;11.60;88.15
69784;BME280;57054;51.978;4.498;2023-05-25T01:17:28;102682.63;;;11.59;88.69
69784;BME280;57054;51.978;4.498;2023-05-25T01:19:54;102688.84;;;11.55;89.00
69784;BME280;57054;51.978;4.498;2023-05-25T01:25:35;102680.94;;;11.56;88.66
69784;BME280;57054;51.978;4.498;2023-05-25T01:28:10;102695.03;;;11.50;88.50
69784;BME280;57054;51.978;4.498;2023-05-25T01:30:42;102689.78;;;11.50;89.12
69784;BME280;57054;51.978;4.498;2023-05-25T01:33:09;102695.88;;;11.52;88.88
69784;BME280;57054;51.978;4.498;2023-05-25T01:35:35;102691.47;;;11.53;88.98
69784;BME280;57054;51.978;4.498;2023-05-25T01:38:01;102693.31;;;11.48;89.22
69784;BME280;57054;51.978;4.498;2023-05-25T01:40:26;102686.31;;;11.48;89.31
69784;BME280;57054;51.978;4.498;2023-05-25T01:42:52;102693.28;;;11.49;89.19
69784;BME280;57054;51.978;4.498;2023-05-25T01:45:17;102700.38;;;11.44;88.93
69784;BME280;57054;51.978;4.498;2023-05-25T01:52:50;102695.97;;;11.45;88.83
69784;BME280;57054;51.978;4.498;2023-05-25T01:55:21;102708.34;;;11.37;89.20
69784;BME280;57054;51.978;4.498;2023-05-25T01:57:49;102702.25;;;11.33;89.61
69784;BME280;57054;51.978;4.498;2023-05-25T02:00:16;102709.31;;;11.29;89.82
69784;BME280;57054;51.978;4.498;2023-05-25T02:02:45;102703.16;;;11.33;90.14
69784;BME280;57054;51.978;4.498;2023-05-25T02:05:12;102711.03;;;11.32;89.54
69784;BME280;57054;51.978;4.498;2023-05-25T02:07:38;102709.25;;;11.34;89.69
69784;BME280;57054;51.978;4.498;2023-05-25T02:10:03;102711.88;;;11.34;89.33
69784;BME280;57054;51.978;4.498;2023-05-25T02:12:29;102706.63;;;11.36;89.25
69784;BME280;57054;51.978;4.498;2023-05-25T02:14:55;102710.13;;;11.34;89.03
69784;BME280;57054;51.978;4.498;2023-05-25T02:17:20;102711.09;;;11.27;89.12
69784;BME280;57054;51.978;4.498;2023-05-25T02:19:45;102713.66;;;11.32;89.53
69784;BME280;57054;51.978;4.498;2023-05-25T02:22:13;102711.97;;;11.28;89.43
69784;BME280;57054;51.978;4.498;2023-05-25T02:24:38;102719.03;;;11.21;89.34
69784;BME280;57054;51.978;4.498;2023-05-25T02:27:05;102715.50;;;11.25;89.74
69784;BME280;57054;51.978;4.498;2023-05-25T02:29:30;102714.59;;;11.28;89.15
69784;BME280;57054;51.978;4.498;2023-05-25T02:31:56;102720.72;;;11.27;88.86
69784;BME280;57054;51.978;4.498;2023-05-25T02:34:21;102728.59;;;11.27;89.02
69784;BME280;57054;51.978;4.498;2023-05-25T02:36:47;102715.47;;;11.28;88.53
69784;BME280;57054;51.978;4.498;2023-05-25T02:39:12;102717.28;;;11.23;89.18
69784;BME280;57054;51.978;4.498;2023-05-25T02:41:38;102720.84;;;11.18;89.09
69784;BME280;57054;51.978;4.498;2023-05-25T02:44:03;102714.69;;;11.19;89.75
69784;BME280;57054;51.978;4.498;2023-05-25T02:46:29;102715.59;;;11.18;89.33
69784;BME280;57054;51.978;4.498;2023-05-25T02:48:54;102721.72;;;11.15;89.58
69784;BME280;57054;51.978;4.498;2023-05-25T02:51:19;102724.41;;;11.13;89.48
69784;BME280;57054;51.978;4.498;2023-05-25T02:53:45;102721.78;;;11.12;90.05
69784;BME280;57054;51.978;4.498;2023-05-25T02:56:10;102713.94;;;11.12;89.62
69784;BME280;57054;51.978;4.498;2023-05-25T02:58:36;102727.88;;;11.14;89.54
69784;BME280;57054;51.978;4.498;2023-05-25T03:01:02;102726.97;;;11.15;89.11
69784;BME280;57054;51.978;4.498;2023-05-25T03:03:30;102730.50;;;11.16;89.02
69784;BME280;57054;51.978;4.498;2023-05-25T03:05:55;102731.34;;;11.18;88.83
69784;BME280;57054;51.978;4.498;2023-05-25T03:08:24;102732.19;;;11.18;88.76
69784;BME280;57054;51.978;4.498;2023-05-25T03:10:49;102736.59;;;11.16;88.24
69784;BME280;57054;51.978;4.498;2023-05-25T03:13:15;102733.97;;;11.14;88.16
69784;BME280;57054;51.978;4.498;2023-05-25T03:15:40;102734.88;;;11.13;88.42
69784;BME280;57054;51.978;4.498;2023-05-25T03:18:06;102742.78;;;11.12;88.54
69784;BME280;57054;51.978;4.498;2023-05-25T03:20:31;102734.91;;;11.10;88.80
69784;BME280;57054;51.978;4.498;2023-05-25T03:22:58;102731.44;;;11.10;88.33
69784;BME280;57054;51.978;4.498;2023-05-25T03:25:23;102728.84;;;11.05;89.12
69784;BME280;57054;51.978;4.498;2023-05-25T03:27:52;102728.00;;;11.03;88.99
69784;BME280;57054;51.978;4.498;2023-05-25T03:30:19;102741.13;;;11.03;88.80
69784;BME280;57054;51.978;4.498;2023-05-25T03:32:45;102729.78;;;11.03;88.99
69784;BME280;57054;51.978;4.498;2023-05-25T03:35:10;102734.13;;;11.02;88.88
69784;BME280;57054;51.978;4.498;2023-05-25T03:37:35;102736.84;;;10.96;88.27
69784;BME280;57054;51.978;4.498;2023-05-25T03:40:01;102737.75;;;10.93;88.40
69784;BME280;57054;51.978;4.498;2023-05-25T03:42:27;102738.66;;;10.91;88.24
69784;BME280;57054;51.978;4.498;2023-05-25T03:44:52;102743.00;;;10.92;88.24
69784;BME280;57054;51.978;4.498;2023-05-25T03:47:18;102743.91;;;10.89;88.00
69784;BME280;57054;51.978;4.498;2023-05-25T03:49:43;102739.56;;;10.87;87.69
69784;BME280;57054;51.978;4.498;2023-05-25T03:52:09;102747.44;;;10.85;87.52
69784;BME280;57054;51.978;4.498;2023-05-25T03:54:34;102739.59;;;10.82;87.13
69784;BME280;57054;51.978;4.498;2023-05-25T03:57:00;102745.78;;;10.78;87.16
69784;BME280;57054;51.978;4.498;2023-05-25T03:59:27;102751.03;;;10.75;87.37
69784;BME280;57054;51.978;4.498;2023-05-25T04:01:53;102747.56;;;10.73;87.03
69784;BME280;57054;51.978;4.498;2023-05-25T04:04:18;102752.88;;;10.71;87.17
69784;BME280;57054;51.978;4.498;2023-05-25T04:06:44;102752.03;;;10.68;87.40
69784;BME280;57054;51.978;4.498;2023-05-25T04:09:13;102753.75;;;10.66;87.40
69784;BME280;57054;51.978;4.498;2023-05-25T04:11:38;102753.75;;;10.66;87.46
69784;BME280;57054;51.978;4.498;2023-05-25T04:14:04;102753.81;;;10.63;87.26
69784;BME280;57054;51.978;4.498;2023-05-25T04:16:29;102758.16;;;10.62;87.23
69784;BME280;57054;51.978;4.498;2023-05-25T04:18:55;102757.31;;;10.59;87.46
69784;BME280;57054;51.978;4.498;2023-05-25T04:21:20;102761.72;;;10.58;87.63
69784;BME280;57054;51.978;4.498;2023-05-25T04:23:46;102758.22;;;10.57;87.65
69784;BME280;57054;51.978;4.498;2023-05-25T04:26:11;102759.94;;;10.59;87.41
69784;BME280;57054;51.978;4.498;2023-05-25T04:28:37;102759.09;;;10.60;87.93
69784;BME280;57054;51.978;4.498;2023-05-25T04:31:05;102761.69;;;10.63;87.52
69784;BME280;57054;51.978;4.498;2023-05-25T04:33:31;102763.41;;;10.64;87.37
69784;BME280;57054;51.978;4.498;2023-05-25T04:35:59;102763.41;;;10.64;87.68
69784;BME280;57054;51.978;4.498;2023-05-25T04:38:24;102768.63;;;10.65;87.38
69784;BME280;57054;51.978;4.498;2023-05-25T04:40:50;102780.00;;;10.64;87.71
69784;BME280;57054;51.978;4.498;2023-05-25T04:43:18;102779.09;;;10.67;87.79
69784;BME280;57054;51.978;4.498;2023-05-25T04:45:44;102780.84;;;10.68;87.78
69784;BME280;57054;51.978;4.498;2023-05-25T04:48:11;102783.44;;;10.69;88.69
69784;BME280;57054;51.978;4.498;2023-05-25T04:50:39;102784.31;;;10.70;88.81
69784;BME280;57054;51.978;4.498;2023-05-25T04:53:05;102779.03;;;10.73;89.09
69784;BME280;57054;51.978;4.498;2023-05-25T04:55:30;102786.88;;;10.76;88.96
69784;BME280;57054;51.978;4.498;2023-05-25T04:57:56;102789.50;;;10.74;90.19
69784;BME280;57054;51.978;4.498;2023-05-25T05:00:21;102791.25;;;10.77;90.50
69784;BME280;57054;51.978;4.498;2023-05-25T05:02:47;102796.41;;;10.80;90.44
69784;BME280;57054;51.978;4.498;2023-05-25T05:05:13;102800.78;;;10.83;90.67
69784;BME280;57054;51.978;4.498;2023-05-25T05:07:38;102792.00;;;10.85;90.59
69784;BME280;57054;51.978;4.498;2023-05-25T05:10:04;102798.09;;;10.89;90.33
69784;BME280;57054;51.978;4.498;2023-05-25T05:12:30;102805.09;;;10.87;91.21
69784;BME280;57054;51.978;4.498;2023-05-25T05:14:56;102802.47;;;10.88;91.62
69784;BME280;57054;51.978;4.498;2023-05-25T05:17:21;102805.94;;;10.89;91.87
69784;BME280;57054;51.978;4.498;2023-05-25T05:19:48;102803.31;;;10.92;91.65
69784;BME280;57054;51.978;4.498;2023-05-25T05:22:13;102808.50;;;10.95;91.37
69784;BME280;57054;51.978;4.498;2023-05-25T05:24:40;102802.34;;;11.01;91.05
69784;BME280;57054;51.978;4.498;2023-05-25T05:27:06;102801.44;;;11.03;90.88
69784;BME280;57054;51.978;4.498;2023-05-25T05:29:31;102797.88;;;11.06;91.14
69784;BME280;57054;51.978;4.498;2023-05-25T05:31:58;102804.88;;;11.07;91.07
69784;BME280;57054;51.978;4.498;2023-05-25T05:34:24;102809.28;;;11.06;91.69
69784;BME280;57054;51.978;4.498;2023-05-25T05:36:49;102815.38;;;11.05;91.75
69784;BME280;57054;51.978;4.498;2023-05-25T05:39:15;102811.91;;;11.03;92.54
69784;BME280;57054;51.978;4.498;2023-05-25T05:41:40;102818.81;;;11.10;92.84
69784;BME280;57054;51.978;4.498;2023-05-25T05:44:10;102810.88;;;11.15;92.24
69784;BME280;57054;51.978;4.498;2023-05-25T05:46:36;102818.72;;;11.18;92.53
69784;BME280;57054;51.978;4.498;2023-05-25T05:49:02;102821.31;;;11.21;92.82
69784;BME280;57054;51.978;4.498;2023-05-25T05:51:28;102816.88;;;11.28;92.82
69784;BME280;57054;51.978;4.498;2023-05-25T05:53:53;102822.91;;;11.33;92.33
69784;BME280;57054;51.978;4.498;2023-05-25T05:56:19;102828.13;;;11.38;92.52
69784;BME280;57054;51.978;4.498;2023-05-25T05:58:45;102827.22;;;11.39;92.28
69784;BME280;57054;51.978;4.498;2023-05-25T06:01:14;102834.19;;;11.43;91.96
69784;BME280;57054;51.978;4.498;2023-05-25T06:03:39;102840.16;;;11.54;90.93
69784;BME280;57054;51.978;4.498;2023-05-25T06:06:05;102841.97;;;11.50;88.40
69784;BME280;57054;51.978;4.498;2023-05-25T06:08:30;102847.06;;;11.63;88.09
69784;BME280;57054;51.978;4.498;2023-05-25T06:10:56;102847.06;;;11.63;87.59
69784;BME280;57054;51.978;4.498;2023-05-25T06:13:21;102854.94;;;11.61;86.96
69784;BME280;57054;51.978;4.498;2023-05-25T06:15:46;102853.16;;;11.63;85.84
69784;BME280;57054;51.978;4.498;2023-05-25T06:18:12;102857.53;;;11.64;86.30
69784;BME280;57054;51.978;4.498;2023-05-25T06:20:37;102849.56;;;11.70;86.77
69784;BME280;57054;51.978;4.498;2023-05-25T06:23:03;102856.47;;;11.78;85.69
69784;BME280;57054;51.978;4.498;2023-05-25T06:25:28;102852.06;;;11.81;85.69
69784;BME280;57054;51.978;4.498;2023-05-25T06:27:53;102859.84;;;11.90;86.09
69784;BME280;57054;51.978;4.498;2023-05-25T06:30:19;102859.84;;;11.87;85.87
69784;BME280;57054;51.978;4.498;2023-05-25T06:32:44;102854.59;;;11.87;86.13
69784;BME280;57054;51.978;4.498;2023-05-25T06:35:10;102858.13;;;11.86;86.19
69784;BME280;57054;51.978;4.498;2023-05-25T06:37:41;102858.13;;;11.86;86.88
69784;BME280;57054;51.978;4.498;2023-05-25T06:40:07;102855.44;;;11.91;87.26
69784;BME280;57054;51.978;4.498;2023-05-25T06:42:35;102861.53;;;11.95;87.21
69784;BME280;57054;51.978;4.498;2023-05-25T06:45:02;102861.47;;;11.99;87.45
69784;BME280;57054;51.978;4.498;2023-05-25T06:47:28;102862.34;;;11.98;87.60
69784;BME280;57054;51.978;4.498;2023-05-25T06:49:53;102865.88;;;11.97;88.11
69784;BME280;57054;51.978;4.498;2023-05-25T06:52:18;102867.56;;;12.00;87.85
69784;BME280;57054;51.978;4.498;2023-05-25T06:54:44;102870.19;;;12.01;88.21
69784;BME280;57054;51.978;4.498;2023-05-25T06:57:09;102871.88;;;12.05;88.01
69784;BME280;57054;51.978;4.498;2023-05-25T06:59:34;102876.13;;;12.14;88.47
69784;BME280;57054;51.978;4.498;2023-05-25T07:02:00;102877.81;;;12.18;88.26
69784;BME280;57054;51.978;4.498;2023-05-25T07:04:25;102878.69;;;12.19;86.16
69784;BME280;57054;51.978;4.498;2023-05-25T07:06:52;102883.84;;;12.25;86.77
69784;BME280;57054;51.978;4.498;2023-05-25T07:09:18;102892.53;;;12.32;86.67
69784;BME280;57054;51.978;4.498;2023-05-25T07:11:43;102897.69;;;12.36;86.09
69784;BME280;57054;51.978;4.498;2023-05-25T07:14:08;102903.84;;;12.35;85.52
69784;BME280;57054;51.978;4.498;2023-05-25T07:16:34;102881.03;;;12.39;85.38
69784;BME280;57054;51.978;4.498;2023-05-25T07:18:59;102900.28;;;12.38;85.24
69784;BME280;57054;51.978;4.498;2023-05-25T07:21:25;102896.69;;;12.43;85.60
69784;BME280;57054;51.978;4.498;2023-05-25T07:23:51;102901.81;;;12.51;85.50
69784;BME280;57054;51.978;4.498;2023-05-25T07:26:16;102895.53;;;12.61;84.88
69784;BME280;57054;51.978;4.498;2023-05-25T07:28:41;102901.56;;;12.68;84.53
69784;BME280;57054;51.978;4.498;2023-05-25T07:31:09;102901.41;;;12.79;84.34
69784;BME280;57054;51.978;4.498;2023-05-25T07:33:34;102908.97;;;12.96;83.19
69784;BME280;57054;51.978;4.498;2023-05-25T07:35:59;102901.88;;;13.02;82.36
69784;BME280;57054;51.978;4.498;2023-05-25T07:38:25;102899.97;;;13.09;81.80
69784;BME280;57054;51.978;4.498;2023-05-25T07:40:50;102904.16;;;13.21;80.83
69784;BME280;57054;51.978;4.498;2023-05-25T07:43:16;102904.88;;;13.28;80.08
69784;BME280;57054;51.978;4.498;2023-05-25T07:45:42;102902.16;;;13.35;80.04
69784;BME280;57054;51.978;4.498;2023-05-25T07:48:07;102906.44;;;13.41;79.85
69784;BME280;57054;51.978;4.498;2023-05-25T07:50:33;102906.31;;;13.46;78.80
69784;BME280;57054;51.978;4.498;2023-05-25T07:52:59;102908.13;;;13.43;77.60
69784;BME280;57054;51.978;4.498;2023-05-25T07:55:25;102912.69;;;13.35;77.48
69784;BME280;57054;51.978;4.498;2023-05-25T07:57:51;102913.50;;;13.37;78.38
69784;BME280;57054;51.978;4.498;2023-05-25T08:00:17;102910.97;;;13.33;78.20
69784;BME280;57054;51.978;4.498;2023-05-25T08:02:43;102923.16;;;13.37;78.46
69784;BME280;57054;51.978;4.498;2023-05-25T08:05:09;102917.94;;;13.35;79.42
69784;BME280;57054;51.978;4.498;2023-05-25T08:07:34;102916.13;;;13.39;78.95
69784;BME280;57054;51.978;4.498;2023-05-25T08:10:00;102924.03;;;13.37;79.14
69784;BME280;57054;51.978;4.498;2023-05-25T08:12:26;102926.66;;;13.39;78.98
69784;BME280;57054;51.978;4.498;2023-05-25T08:14:51;102929.97;;;13.47;78.62
69784;BME280;57054;51.978;4.498;2023-05-25T08:17:18;102924.59;;;13.53;79.04
69784;BME280;57054;51.978;4.498;2023-05-25T08:19:44;102929.78;;;13.58;78.43
69784;BME280;57054;51.978;4.498;2023-05-25T08:22:10;102914.78;;;13.61;78.42
69784;BME280;57054;51.978;4.498;2023-05-25T08:24:35;102923.50;;;13.65;78.28
69784;BME280;57054;51.978;4.498;2023-05-25T08:27:01;102934.84;;;13.67;77.40
69784;BME280;57054;51.978;4.498;2023-05-25T08:29:26;102938.31;;;13.69;77.63
69784;BME280;57054;51.978;4.498;2023-05-25T08:31:52;102939.94;;;13.76;77.20
69784;BME280;57054;51.978;4.498;2023-05-25T08:34:17;102949.59;;;13.76;76.43
69784;BME280;57054;51.978;4.498;2023-05-25T08:36:43;102946.19;;;13.71;75.05
69784;BME280;57054;51.978;4.498;2023-05-25T08:39:09;102945.34;;;13.69;76.37
69784;BME280;57054;51.978;4.498;2023-05-25T08:41:41;102950.66;;;13.67;75.97
69784;BME280;57054;51.978;4.498;2023-05-25T08:44:07;102948.03;;;13.66;76.03
69784;BME280;57054;51.978;4.498;2023-05-25T08:46:33;102945.50;;;13.62;76.68
69784;BME280;57054;51.978;4.498;2023-05-25T08:49:07;102952.50;;;13.62;76.51
69784;BME280;57054;51.978;4.498;2023-05-25T08:51:35;102947.13;;;13.68;76.83
69784;BME280;57054;51.978;4.498;2023-05-25T08:54:11;102950.59;;;13.70;77.09
69784;BME280;57054;51.978;4.498;2023-05-25T08:56:59;102949.66;;;13.73;76.21
69784;BME280;57054;51.978;4.498;2023-05-25T08:59:30;102952.34;;;13.70;76.23
69784;BME280;57054;51.978;4.498;2023-05-25T09:05:03;102956.72;;;13.71;76.58
69784;BME280;57054;51.978;4.498;2023-05-25T09:07:29;102947.88;;;13.73;75.97
69784;BME280;57054;51.978;4.498;2023-05-25T09:09:56;102953.16;;;13.73;75.48
69784;BME280;57054;51.978;4.498;2023-05-25T09:12:22;102964.53;;;13.75;75.31
69784;BME280;57054;51.978;4.498;2023-05-25T09:14:48;102953.94;;;13.77;75.27
69784;BME280;57054;51.978;4.498;2023-05-25T09:17:14;102958.47;;;13.72;75.26
69784;BME280;57054;51.978;4.498;2023-05-25T09:19:41;102956.78;;;13.68;76.17
69784;BME280;57054;51.978;4.498;2023-05-25T09:22:06;102958.59;;;13.64;75.34
69784;BME280;57054;51.978;4.498;2023-05-25T09:24:32;102958.69;;;13.61;75.25
69784;BME280;57054;51.978;4.498;2023-05-25T09:26:58;102953.44;;;13.59;75.63
69784;BME280;57054;51.978;4.498;2023-05-25T09:29:25;102960.41;;;13.60;76.69
69784;BME280;57054;51.978;4.498;2023-05-25T09:31:50;102951.63;;;13.61;76.83
69784;BME280;57054;51.978;4.498;2023-05-25T09:34:16;102955.97;;;13.64;76.88
69784;BME280;57054;51.978;4.498;2023-05-25T09:36:41;102966.31;;;13.73;76.82
69784;BME280;57054;51.978;4.498;2023-05-25T09:39:10;102961.94;;;13.74;76.85
69784;BME280;57054;51.978;4.498;2023-05-25T09:41:36;102954.91;;;13.74;77.21
69784;BME280;57054;51.978;4.498;2023-05-25T09:44:05;102955.75;;;13.75;76.60
69784;BME280;57054;51.978;4.498;2023-05-25T09:46:30;102961.91;;;13.75;75.45
69784;BME280;57054;51.978;4.498;2023-05-25T09:49:00;102954.72;;;13.82;75.70
69784;BME280;57054;51.978;4.498;2023-05-25T09:51:26;102956.44;;;13.85;76.02
69784;BME280;57054;51.978;4.498;2023-05-25T09:53:52;102954.66;;;13.87;75.82
69784;BME280;57054;51.978;4.498;2023-05-25T09:56:18;102958.88;;;13.94;75.62
69784;BME280;57054;51.978;4.498;2023-05-25T09:58:44;102955.25;;;13.99;75.22
69784;BME280;57054;51.978;4.498;2023-05-25T10:01:10;102951.59;;;14.07;74.86
69784;BME280;57054;51.978;4.498;2023-05-25T10:03:44;102956.53;;;14.20;73.99
69784;BME280;57054;51.978;4.498;2023-05-25T10:06:11;102958.94;;;14.31;72.74
69784;BME280;57054;51.978;4.498;2023-05-25T10:08:37;102954.16;;;14.49;71.61
69784;BME280;57054;51.978;4.498;2023-05-25T10:11:04;102953.09;;;14.56;68.51
69784;BME280;57054;51.978;4.498;2023-05-25T10:13:31;102952.06;;;14.65;68.63
69784;BME280;57054;51.978;4.498;2023-05-25T10:15:57;102945.81;;;14.67;67.04
69784;BME280;57054;51.978;4.498;2023-05-25T10:18:25;102947.25;;;14.81;67.39
69784;BME280;57054;51.978;4.498;2023-05-25T10:21:00;102954.88;;;14.93;66.73
69784;BME280;57054;51.978;4.498;2023-05-25T10:23:34;102952.03;;;15.01;66.26
69784;BME280;57054;51.978;4.498;2023-05-25T10:26:02;102946.75;;;15.01;65.35
69784;BME280;57054;51.978;4.498;2023-05-25T10:28:29;102945.03;;;15.00;66.88
69784;BME280;57054;51.978;4.498;2023-05-25T10:30:59;102959.22;;;14.95;65.79
69784;BME280;57054;51.978;4.498;2023-05-25T10:33:24;102941.78;;;14.90;65.22
69784;BME280;57054;51.978;4.498;2023-05-25T10:35:53;102949.63;;;14.91;64.94
69784;BME280;57054;51.978;4.498;2023-05-25T10:38:20;102955.94;;;14.84;63.06
69784;BME280;57054;51.978;4.498;2023-05-25T10:40:46;102957.59;;;14.90;64.00
69784;BME280;57054;51.978;4.498;2023-05-25T10:43:15;102957.47;;;14.94;65.08
69784;BME280;57054;51.978;4.498;2023-05-25T10:45:41;102965.16;;;15.04;65.70
69784;BME280;57054;51.978;4.498;2023-05-25T10:48:07;102967.75;;;15.05;65.16
69784;BME280;57054;51.978;4.498;2023-05-25T10:50:35;102965.19;;;15.02;63.92
69784;BME280;57054;51.978;4.498;2023-05-25T10:55:28;102978.34;;;15.04;65.04
69784;BME280;57054;51.978;4.498;2023-05-25T10:58:10;102972.25;;;15.02;66.72
69784;BME280;57054;51.978;4.498;2023-05-25T11:00:36;102973.19;;;14.99;67.38
69784;BME280;57054;51.978;4.498;2023-05-25T11:03:03;102974.19;;;14.93;68.29
69784;BME280;57054;51.978;4.498;2023-05-25T11:07:57;102968.91;;;14.93;69.47
69784;BME280;57054;51.978;4.498;2023-05-25T11:16:14;102969.03;;;14.89;69.90
69784;BME280;57054;51.978;4.498;2023-05-25T11:18:43;102969.06;;;14.87;69.84
69784;BME280;57054;51.978;4.498;2023-05-25T11:21:13;102972.47;;;14.92;69.97
69784;BME280;57054;51.978;4.498;2023-05-25T11:23:56;102961.75;;;14.98;69.81
69784;BME280;57054;51.978;4.498;2023-05-25T11:26:29;102965.06;;;15.07;69.88
69784;BME280;57054;51.978;4.498;2023-05-25T11:28:55;102962.38;;;15.10;68.84
69784;BME280;57054;51.978;4.498;2023-05-25T11:31:33;102957.81;;;15.15;69.24
69784;BME280;57054;51.978;4.498;2023-05-25T11:34:02;102950.72;;;15.17;68.85
69784;BME280;57054;51.978;4.498;2023-05-25T11:36:34;102949.03;;;15.14;68.78
69784;BME280;57054;51.978;4.498;2023-05-25T11:39:00;102950.78;;;15.15;69.71
69784;BME280;57054;51.978;4.498;2023-05-25T11:41:27;102964.00;;;15.14;69.24
69784;BME280;57054;51.978;4.498;2023-05-25T11:43:53;102943.69;;;15.18;69.48
69784;BME280;57054;51.978;4.498;2023-05-25T11:46:20;102943.53;;;15.22;69.86
69784;BME280;57054;51.978;4.498;2023-05-25T11:48:50;102947.97;;;15.22;69.48
69784;BME280;57054;51.978;4.498;2023-05-25T11:51:17;102950.66;;;15.20;68.58
69784;BME280;57054;51.978;4.498;2023-05-25T11:53:44;102944.53;;;15.18;69.01
69784;BME280;57054;51.978;4.498;2023-05-25T11:56:14;102947.25;;;15.15;68.40
69784;BME280;57054;51.978;4.498;2023-05-25T11:58:40;102944.69;;;15.13;68.71
69784;BME280;57054;51.978;4.498;2023-05-25T12:01:15;102942.94;;;15.12;68.25
69784;BME280;57054;51.978;4.498;2023-05-25T12:03:41;102947.25;;;15.15;68.50
69784;BME280;57054;51.978;4.498;2023-05-25T12:06:07;102943.81;;;15.11;68.05
69784;BME280;57054;51.978;4.498;2023-05-25T12:08:34;102938.63;;;15.10;67.89
69784;BME280;57054;51.978;4.498;2023-05-25T12:11:01;102946.44;;;15.13;67.97
69784;BME280;57054;51.978;4.498;2023-05-25T12:13:26;102953.66;;;15.06;65.35
69784;BME280;57054;51.978;4.498;2023-05-25T12:15:55;102945.78;;;15.05;65.50
69784;BME280;57054;51.978;4.498;2023-05-25T12:18:26;102942.44;;;14.98;65.14
69784;BME280;57054;51.978;4.498;2023-05-25T12:20:53;102945.91;;;14.98;66.14
69784;BME280;57054;51.978;4.498;2023-05-25T12:23:20;102945.84;;;15.02;65.82
69784;BME280;57054;51.978;4.498;2023-05-25T12:25:45;102947.59;;;15.03;65.24
69784;BME280;57054;51.978;4.498;2023-05-25T12:28:13;102946.59;;;15.07;64.83
69784;BME280;57054;51.978;4.498;2023-05-25T12:30:39;102941.19;;;15.11;64.61
69784;BME280;57054;51.978;4.498;2023-05-25T12:33:04;102934.88;;;15.17;65.24
69784;BME280;57054;51.978;4.498;2023-05-25T12:35:43;102935.63;;;15.22;64.94
69784;BME280;57054;51.978;4.498;2023-05-25T12:38:16;102933.88;;;15.23;62.80
69784;BME280;57054;51.978;4.498;2023-05-25T12:40:42;102935.59;;;15.24;62.42
69784;BME280;57054;51.978;4.498;2023-05-25T12:43:07;102937.34;;;15.25;62.94
69784;BME280;57054;51.978;4.498;2023-05-25T12:45:32;102932.03;;;15.26;62.54
69784;BME280;57054;51.978;4.498;2023-05-25T12:48:03;102932.91;;;15.25;62.36
69784;BME280;57054;51.978;4.498;2023-05-25T12:50:28;102936.38;;;15.27;63.39
69784;BME280;57054;51.978;4.498;2023-05-25T12:53:00;102932.69;;;15.33;63.95
69784;BME280;57054;51.978;4.498;2023-05-25T12:55:30;102928.34;;;15.32;62.23
69784;BME280;57054;51.978;4.498;2023-05-25T12:57:58;102936.03;;;15.40;62.80
69784;BME280;57054;51.978;4.498;2023-05-25T13:00:47;102933.38;;;15.41;62.33
69784;BME280;57054;51.978;4.498;2023-05-25T13:03:11;102930.72;;;15.41;61.63
69784;BME280;57054;51.978;4.498;2023-05-25T13:05:37;102935.03;;;15.44;62.04
69784;BME280;57054;51.978;4.498;2023-05-25T13:08:03;102923.59;;;15.45;62.08
69784;BME280;57054;51.978;4.498;2023-05-25T13:10:30;102921.75;;;15.47;62.84
69784;BME280;57054;51.978;4.498;2023-05-25T13:12:57;102918.28;;;15.46;62.67